sensor_id;sensor_type;location;lat;lon;timestamp;P1;durP1;ratioP1;P2;durP2;ratioP2
45522;SDS011;31254;51.680;5.394;2023-06-19T00:02:17;7.63;;;5.85;;
45522;SDS011;31254;51.680;5.394;2023-06-19T00:04:43;15.77;;;6.15;;
45522;SDS011;31254;51.680;5.394;2023-06-19T00:07:10;8.90;;;5.80;;
45522;SDS011;31254;51.680;5.394;2023-06-19T00:09:39;7.53;;;5.90;;
45522;SDS011;31254;51.680;5.394;2023-06-19T00:12:06;9.25;;;5.10;;
45522;SDS011;31254;51.680;5.394;2023-06-19T00:14:33;7.90;;;5.72;;
45522;SDS011;31254;51.680;5.394;2023-06-19T00:17:02;8.55;;;5.50;;
45522;SDS011;31254;51.680;5.394;2023-06-19T00:19:29;9.82;;;5.60;;
45522;SDS011;31254;51.680;5.394;2023-06-19T00:21:56;7.95;;;5.10;;
45522;SDS011;31254;51.680;5.394;2023-06-19T00:24:23;9.23;;;5.18;;
45522;SDS011;31254;51.680;5.394;2023-06-19T00:26:50;6.13;;;4.50;;
45522;SDS011;31254;51.680;5.394;2023-06-19T00:29:17;8.77;;;4.43;;
45522;SDS011;31254;51.680;5.394;2023-06-19T00:31:44;6.47;;;4.68;;
45522;SDS011;31254;51.680;5.394;2023-06-19T00:34:10;6.00;;;4.22;;
45522;SDS011;31254;51.680;5.394;2023-06-19T00:36:37;6.00;;;4.18;;
45522;SDS011;31254;51.680;5.394;2023-06-19T00:39:07;6.03;;;3.95;;
45522;SDS011;31254;51.680;5.394;2023-06-19T00:41:35;7.90;;;4.20;;
45522;SDS011;31254;51.680;5.394;2023-06-19T00:44:02;7.05;;;3.50;;
45522;SDS011;31254;51.680;5.394;2023-06-19T00:46:28;7.30;;;3.72;;
45522;SDS011;31254;51.680;5.394;2023-06-19T00:48:55;6.95;;;4.22;;
45522;SDS011;31254;51.680;5.394;2023-06-19T00:51:22;5.70;;;4.18;;
45522;SDS011;31254;51.680;5.394;2023-06-19T00:53:49;6.80;;;4.07;;
45522;SDS011;31254;51.680;5.394;2023-06-19T00:56:16;7.20;;;3.95;;
45522;SDS011;31254;51.680;5.394;2023-06-19T00:58:44;7.00;;;4.00;;
45522;SDS011;31254;51.680;5.394;2023-06-19T01:01:11;7.30;;;5.03;;
45522;SDS011;31254;51.680;5.394;2023-06-19T01:03:38;5.47;;;4.10;;
45522;SDS011;31254;51.680;5.394;2023-06-19T01:06:09;5.82;;;3.78;;
45522;SDS011;31254;51.680;5.394;2023-06-19T01:11:11;5.80;;;4.10;;
45522;SDS011;31254;51.680;5.394;2023-06-19T01:13:55;7.25;;;4.18;;
45522;SDS011;31254;51.680;5.394;2023-06-19T01:16:45;5.43;;;3.83;;
45522;SDS011;31254;51.680;5.394;2023-06-19T01:19:15;10.23;;;4.05;;
45522;SDS011;31254;51.680;5.394;2023-06-19T01:21:48;8.23;;;4.10;;
45522;SDS011;31254;51.680;5.394;2023-06-19T01:24:16;7.13;;;3.80;;
45522;SDS011;31254;51.680;5.394;2023-06-19T01:26:45;9.38;;;4.25;;
45522;SDS011;31254;51.680;5.394;2023-06-19T01:29:15;6.13;;;4.18;;
45522;SDS011;31254;51.680;5.394;2023-06-19T01:34:22;7.05;;;4.28;;
45522;SDS011;31254;51.680;5.394;2023-06-19T01:36:54;5.80;;;3.65;;
45522;SDS011;31254;51.680;5.394;2023-06-19T01:39:23;6.05;;;3.65;;
45522;SDS011;31254;51.680;5.394;2023-06-19T01:41:51;4.53;;;3.13;;
45522;SDS011;31254;51.680;5.394;2023-06-19T01:44:18;4.43;;;2.55;;
45522;SDS011;31254;51.680;5.394;2023-06-19T01:46:52;7.50;;;2.60;;
45522;SDS011;31254;51.680;5.394;2023-06-19T01:49:19;5.60;;;2.20;;
45522;SDS011;31254;51.680;5.394;2023-06-19T01:51:46;6.22;;;2.00;;
45522;SDS011;31254;51.680;5.394;2023-06-19T01:54:13;4.10;;;2.20;;
45522;SDS011;31254;51.680;5.394;2023-06-19T01:56:42;5.15;;;2.00;;
45522;SDS011;31254;51.680;5.394;2023-06-19T01:59:09;3.83;;;1.95;;
45522;SDS011;31254;51.680;5.394;2023-06-19T02:01:38;4.13;;;2.08;;
45522;SDS011;31254;51.680;5.394;2023-06-19T02:04:04;5.70;;;1.80;;
45522;SDS011;31254;51.680;5.394;2023-06-19T02:06:33;6.25;;;2.17;;
45522;SDS011;31254;51.680;5.394;2023-06-19T02:09:00;3.92;;;2.10;;
45522;SDS011;31254;51.680;5.394;2023-06-19T02:11:27;3.03;;;1.90;;
45522;SDS011;31254;51.680;5.394;2023-06-19T02:13:56;6.38;;;2.17;;
45522;SDS011;31254;51.680;5.394;2023-06-19T02:16:28;4.28;;;2.00;;
45522;SDS011;31254;51.680;5.394;2023-06-19T02:18:59;6.50;;;2.20;;
45522;SDS011;31254;51.680;5.394;2023-06-19T02:21:26;4.20;;;2.17;;
45522;SDS011;31254;51.680;5.394;2023-06-19T02:23:54;4.88;;;2.45;;
45522;SDS011;31254;51.680;5.394;2023-06-19T02:26:21;3.85;;;2.35;;
45522;SDS011;31254;51.680;5.394;2023-06-19T02:28:48;4.30;;;2.28;;
45522;SDS011;31254;51.680;5.394;2023-06-19T02:31:15;3.58;;;1.92;;
45522;SDS011;31254;51.680;5.394;2023-06-19T02:33:41;2.97;;;1.80;;
45522;SDS011;31254;51.680;5.394;2023-06-19T02:36:10;3.47;;;2.22;;
45522;SDS011;31254;51.680;5.394;2023-06-19T02:38:39;4.30;;;2.08;;
45522;SDS011;31254;51.680;5.394;2023-06-19T02:41:08;3.38;;;2.00;;
45522;SDS011;31254;51.680;5.394;2023-06-19T02:43:35;3.40;;;2.10;;
45522;SDS011;31254;51.680;5.394;2023-06-19T02:46:06;3.63;;;1.70;;
45522;SDS011;31254;51.680;5.394;2023-06-19T02:48:35;3.40;;;2.10;;
45522;SDS011;31254;51.680;5.394;2023-06-19T02:51:02;3.58;;;2.15;;
45522;SDS011;31254;51.680;5.394;2023-06-19T02:53:29;3.25;;;2.08;;
45522;SDS011;31254;51.680;5.394;2023-06-19T02:55:55;4.45;;;2.30;;
45522;SDS011;31254;51.680;5.394;2023-06-19T02:58:24;3.30;;;1.90;;
45522;SDS011;31254;51.680;5.394;2023-06-19T03:00:53;4.05;;;2.00;;
45522;SDS011;31254;51.680;5.394;2023-06-19T03:03:19;3.25;;;2.10;;
45522;SDS011;31254;51.680;5.394;2023-06-19T03:05:49;5.57;;;2.10;;
45522;SDS011;31254;51.680;5.394;2023-06-19T03:08:16;5.32;;;3.30;;
45522;SDS011;31254;51.680;5.394;2023-06-19T03:10:43;3.67;;;2.20;;
45522;SDS011;31254;51.680;5.394;2023-06-19T03:13:12;4.10;;;1.90;;
45522;SDS011;31254;51.680;5.394;2023-06-19T03:15:40;6.45;;;2.08;;
45522;SDS011;31254;51.680;5.394;2023-06-19T03:18:09;5.00;;;2.15;;
45522;SDS011;31254;51.680;5.394;2023-06-19T03:20:37;4.40;;;2.35;;
45522;SDS011;31254;51.680;5.394;2023-06-19T03:23:03;3.55;;;1.95;;
45522;SDS011;31254;51.680;5.394;2023-06-19T03:25:30;4.43;;;2.30;;
45522;SDS011;31254;51.680;5.394;2023-06-19T03:28:03;5.40;;;1.88;;
45522;SDS011;31254;51.680;5.394;2023-06-19T03:30:31;5.95;;;2.28;;
45522;SDS011;31254;51.680;5.394;2023-06-19T03:32:57;2.47;;;1.58;;
45522;SDS011;31254;51.680;5.394;2023-06-19T03:35:24;4.35;;;2.25;;
45522;SDS011;31254;51.680;5.394;2023-06-19T03:37:51;5.78;;;2.45;;
45522;SDS011;31254;51.680;5.394;2023-06-19T03:40:17;3.97;;;2.28;;
45522;SDS011;31254;51.680;5.394;2023-06-19T03:42:45;3.78;;;2.33;;
45522;SDS011;31254;51.680;5.394;2023-06-19T03:45:12;5.90;;;2.22;;
45522;SDS011;31254;51.680;5.394;2023-06-19T03:47:41;4.38;;;2.40;;
45522;SDS011;31254;51.680;5.394;2023-06-19T03:50:08;3.70;;;2.33;;
45522;SDS011;31254;51.680;5.394;2023-06-19T03:52:49;8.00;;;2.58;;
45522;SDS011;31254;51.680;5.394;2023-06-19T03:55:16;4.80;;;2.13;;
45522;SDS011;31254;51.680;5.394;2023-06-19T03:57:45;5.47;;;2.10;;
45522;SDS011;31254;51.680;5.394;2023-06-19T04:00:14;3.55;;;2.28;;
45522;SDS011;31254;51.680;5.394;2023-06-19T04:02:44;4.72;;;2.70;;
45522;SDS011;31254;51.680;5.394;2023-06-19T04:05:13;3.58;;;2.08;;
45522;SDS011;31254;51.680;5.394;2023-06-19T04:07:41;5.55;;;2.58;;
45522;SDS011;31254;51.680;5.394;2023-06-19T04:10:08;5.38;;;2.58;;
45522;SDS011;31254;51.680;5.394;2023-06-19T04:12:39;6.38;;;2.90;;
45522;SDS011;31254;51.680;5.394;2023-06-19T04:15:07;8.02;;;2.70;;
45522;SDS011;31254;51.680;5.394;2023-06-19T04:17:36;4.18;;;2.70;;
45522;SDS011;31254;51.680;5.394;2023-06-19T04:20:08;3.83;;;2.50;;
45522;SDS011;31254;51.680;5.394;2023-06-19T04:22:38;6.97;;;2.63;;
45522;SDS011;31254;51.680;5.394;2023-06-19T04:25:07;5.70;;;2.65;;
45522;SDS011;31254;51.680;5.394;2023-06-19T04:27:35;6.28;;;2.40;;
45522;SDS011;31254;51.680;5.394;2023-06-19T04:30:02;5.22;;;2.88;;
45522;SDS011;31254;51.680;5.394;2023-06-19T04:32:33;3.55;;;2.47;;
45522;SDS011;31254;51.680;5.394;2023-06-19T04:35:01;4.53;;;3.13;;
45522;SDS011;31254;51.680;5.394;2023-06-19T04:37:28;6.00;;;3.53;;
45522;SDS011;31254;51.680;5.394;2023-06-19T04:39:58;8.48;;;3.72;;
45522;SDS011;31254;51.680;5.394;2023-06-19T04:42:24;6.55;;;3.70;;
45522;SDS011;31254;51.680;5.394;2023-06-19T04:44:52;6.97;;;3.95;;
45522;SDS011;31254;51.680;5.394;2023-06-19T04:47:20;10.25;;;4.40;;
45522;SDS011;31254;51.680;5.394;2023-06-19T04:49:48;7.97;;;4.55;;
45522;SDS011;31254;51.680;5.394;2023-06-19T04:52:15;8.30;;;4.70;;
45522;SDS011;31254;51.680;5.394;2023-06-19T04:54:45;8.43;;;4.78;;
45522;SDS011;31254;51.680;5.394;2023-06-19T04:57:11;7.93;;;4.85;;
45522;SDS011;31254;51.680;5.394;2023-06-19T04:59:41;14.43;;;4.90;;
45522;SDS011;31254;51.680;5.394;2023-06-19T05:02:08;5.72;;;4.25;;
45522;SDS011;31254;51.680;5.394;2023-06-19T05:04:35;5.38;;;3.90;;
45522;SDS011;31254;51.680;5.394;2023-06-19T05:07:04;8.32;;;4.13;;
45522;SDS011;31254;51.680;5.394;2023-06-19T05:09:34;6.45;;;3.95;;
45522;SDS011;31254;51.680;5.394;2023-06-19T05:12:01;8.05;;;4.25;;
45522;SDS011;31254;51.680;5.394;2023-06-19T05:14:28;12.57;;;4.75;;
45522;SDS011;31254;51.680;5.394;2023-06-19T05:16:55;7.90;;;4.70;;
45522;SDS011;31254;51.680;5.394;2023-06-19T05:19:21;9.02;;;4.40;;
45522;SDS011;31254;51.680;5.394;2023-06-19T05:21:48;7.68;;;4.72;;
45522;SDS011;31254;51.680;5.394;2023-06-19T05:24:15;7.82;;;4.88;;
45522;SDS011;31254;51.680;5.394;2023-06-19T05:26:41;6.93;;;4.63;;
45522;SDS011;31254;51.680;5.394;2023-06-19T05:29:10;11.43;;;5.43;;
45522;SDS011;31254;51.680;5.394;2023-06-19T05:31:39;5.85;;;4.80;;
45522;SDS011;31254;51.680;5.394;2023-06-19T05:34:07;11.52;;;5.68;;
45522;SDS011;31254;51.680;5.394;2023-06-19T05:36:33;6.50;;;5.47;;
45522;SDS011;31254;51.680;5.394;2023-06-19T05:39:00;14.55;;;6.03;;
45522;SDS011;31254;51.680;5.394;2023-06-19T05:41:32;10.23;;;6.57;;
45522;SDS011;31254;51.680;5.394;2023-06-19T05:43:59;7.88;;;6.68;;
45522;SDS011;31254;51.680;5.394;2023-06-19T05:46:26;10.50;;;7.38;;
45522;SDS011;31254;51.680;5.394;2023-06-19T05:48:56;8.38;;;7.07;;
45522;SDS011;31254;51.680;5.394;2023-06-19T05:51:23;9.80;;;7.85;;
45522;SDS011;31254;51.680;5.394;2023-06-19T05:53:50;11.68;;;8.52;;
45522;SDS011;31254;51.680;5.394;2023-06-19T05:56:20;13.60;;;7.95;;
45522;SDS011;31254;51.680;5.394;2023-06-19T05:58:47;11.75;;;7.82;;
45522;SDS011;31254;51.680;5.394;2023-06-19T06:01:14;8.68;;;7.53;;
45522;SDS011;31254;51.680;5.394;2023-06-19T06:03:40;11.18;;;7.60;;
45522;SDS011;31254;51.680;5.394;2023-06-19T06:06:07;9.02;;;6.97;;
45522;SDS011;31254;51.680;5.394;2023-06-19T06:08:36;9.57;;;6.95;;
45522;SDS011;31254;51.680;5.394;2023-06-19T06:11:05;11.77;;;7.80;;
45522;SDS011;31254;51.680;5.394;2023-06-19T06:13:34;10.55;;;7.57;;
45522;SDS011;31254;51.680;5.394;2023-06-19T06:16:02;8.93;;;7.03;;
45522;SDS011;31254;51.680;5.394;2023-06-19T06:18:33;10.20;;;6.72;;
45522;SDS011;31254;51.680;5.394;2023-06-19T06:21:00;8.68;;;7.18;;
45522;SDS011;31254;51.680;5.394;2023-06-19T06:23:27;7.55;;;6.85;;
45522;SDS011;31254;51.680;5.394;2023-06-19T06:25:54;9.27;;;6.93;;
45522;SDS011;31254;51.680;5.394;2023-06-19T06:28:27;9.80;;;6.72;;
45522;SDS011;31254;51.680;5.394;2023-06-19T06:30:58;9.05;;;6.43;;
45522;SDS011;31254;51.680;5.394;2023-06-19T06:33:24;9.30;;;6.57;;
45522;SDS011;31254;51.680;5.394;2023-06-19T06:35:57;9.77;;;6.47;;
45522;SDS011;31254;51.680;5.394;2023-06-19T06:38:26;8.38;;;6.47;;
45522;SDS011;31254;51.680;5.394;2023-06-19T06:40:52;9.43;;;6.18;;
45522;SDS011;31254;51.680;5.394;2023-06-19T06:43:22;9.00;;;6.07;;
45522;SDS011;31254;51.680;5.394;2023-06-19T06:45:51;8.38;;;6.45;;
45522;SDS011;31254;51.680;5.394;2023-06-19T06:48:20;7.70;;;6.65;;
45522;SDS011;31254;51.680;5.394;2023-06-19T06:50:47;8.43;;;6.57;;
45522;SDS011;31254;51.680;5.394;2023-06-19T06:53:14;10.45;;;7.18;;
45522;SDS011;31254;51.680;5.394;2023-06-19T06:55:43;10.55;;;6.65;;
45522;SDS011;31254;51.680;5.394;2023-06-19T06:58:12;8.05;;;7.00;;
45522;SDS011;31254;51.680;5.394;2023-06-19T07:00:40;8.90;;;6.85;;
45522;SDS011;31254;51.680;5.394;2023-06-19T07:03:11;9.73;;;7.68;;
45522;SDS011;31254;51.680;5.394;2023-06-19T07:05:41;10.25;;;7.28;;
45522;SDS011;31254;51.680;5.394;2023-06-19T07:08:10;9.10;;;7.35;;
45522;SDS011;31254;51.680;5.394;2023-06-19T07:10:39;8.32;;;7.18;;
45522;SDS011;31254;51.680;5.394;2023-06-19T07:13:06;11.60;;;7.82;;
45522;SDS011;31254;51.680;5.394;2023-06-19T07:15:35;8.50;;;7.18;;
45522;SDS011;31254;51.680;5.394;2023-06-19T07:18:02;10.25;;;8.43;;
45522;SDS011;31254;51.680;5.394;2023-06-19T07:20:29;10.15;;;7.80;;
45522;SDS011;31254;51.680;5.394;2023-06-19T07:22:58;16.08;;;7.85;;
45522;SDS011;31254;51.680;5.394;2023-06-19T07:25:26;14.63;;;11.30;;
45522;SDS011;31254;51.680;5.394;2023-06-19T07:27:53;12.38;;;8.23;;
45522;SDS011;31254;51.680;5.394;2023-06-19T07:30:22;10.63;;;8.18;;
45522;SDS011;31254;51.680;5.394;2023-06-19T07:32:51;13.40;;;8.43;;
45522;SDS011;31254;51.680;5.394;2023-06-19T07:35:18;10.20;;;8.30;;
45522;SDS011;31254;51.680;5.394;2023-06-19T07:37:45;13.35;;;8.43;;
45522;SDS011;31254;51.680;5.394;2023-06-19T07:40:14;10.52;;;7.90;;
45522;SDS011;31254;51.680;5.394;2023-06-19T07:42:43;8.25;;;7.15;;
45522;SDS011;31254;51.680;5.394;2023-06-19T07:45:15;8.57;;;7.70;;
45522;SDS011;31254;51.680;5.394;2023-06-19T07:47:42;10.50;;;7.82;;
45522;SDS011;31254;51.680;5.394;2023-06-19T07:50:08;13.68;;;9.63;;
45522;SDS011;31254;51.680;5.394;2023-06-19T07:52:35;14.13;;;9.15;;
45522;SDS011;31254;51.680;5.394;2023-06-19T07:55:02;10.82;;;9.18;;
45522;SDS011;31254;51.680;5.394;2023-06-19T07:57:29;12.43;;;9.20;;
45522;SDS011;31254;51.680;5.394;2023-06-19T07:59:59;12.50;;;9.27;;
45522;SDS011;31254;51.680;5.394;2023-06-19T08:02:25;11.80;;;9.50;;
45522;SDS011;31254;51.680;5.394;2023-06-19T08:04:54;12.32;;;9.70;;
45522;SDS011;31254;51.680;5.394;2023-06-19T08:07:21;13.85;;;11.30;;
45522;SDS011;31254;51.680;5.394;2023-06-19T08:09:47;13.52;;;10.05;;
45522;SDS011;31254;51.680;5.394;2023-06-19T08:12:30;17.15;;;11.10;;
45522;SDS011;31254;51.680;5.394;2023-06-19T08:14:56;11.88;;;9.07;;
45522;SDS011;31254;51.680;5.394;2023-06-19T08:17:25;13.85;;;10.05;;
45522;SDS011;31254;51.680;5.394;2023-06-19T08:19:54;13.00;;;10.02;;
45522;SDS011;31254;51.680;5.394;2023-06-19T08:22:23;11.13;;;9.80;;
45522;SDS011;31254;51.680;5.394;2023-06-19T08:24:57;17.70;;;10.07;;
45522;SDS011;31254;51.680;5.394;2023-06-19T08:27:24;13.68;;;9.48;;
45522;SDS011;31254;51.680;5.394;2023-06-19T08:29:51;11.32;;;10.13;;
45522;SDS011;31254;51.680;5.394;2023-06-19T08:32:18;16.00;;;9.90;;
45522;SDS011;31254;51.680;5.394;2023-06-19T08:34:44;16.45;;;9.93;;
45522;SDS011;31254;51.680;5.394;2023-06-19T08:37:11;13.85;;;9.43;;
45522;SDS011;31254;51.680;5.394;2023-06-19T08:39:42;11.20;;;9.55;;
45522;SDS011;31254;51.680;5.394;2023-06-19T08:42:12;12.55;;;9.50;;
45522;SDS011;31254;51.680;5.394;2023-06-19T08:44:39;12.65;;;9.30;;
45522;SDS011;31254;51.680;5.394;2023-06-19T08:47:08;10.02;;;8.88;;
45522;SDS011;31254;51.680;5.394;2023-06-19T08:49:36;13.52;;;9.43;;
45522;SDS011;31254;51.680;5.394;2023-06-19T08:52:03;12.55;;;9.57;;
45522;SDS011;31254;51.680;5.394;2023-06-19T08:54:31;11.73;;;8.90;;
45522;SDS011;31254;51.680;5.394;2023-06-19T08:57:01;12.80;;;9.80;;
45522;SDS011;31254;51.680;5.394;2023-06-19T08:59:30;11.38;;;9.73;;
45522;SDS011;31254;51.680;5.394;2023-06-19T09:01:58;12.35;;;10.25;;
45522;SDS011;31254;51.680;5.394;2023-06-19T09:04:25;16.23;;;9.55;;
45522;SDS011;31254;51.680;5.394;2023-06-19T09:06:54;11.80;;;10.00;;
45522;SDS011;31254;51.680;5.394;2023-06-19T09:09:24;14.68;;;9.85;;
45522;SDS011;31254;51.680;5.394;2023-06-19T09:11:59;11.25;;;10.00;;
45522;SDS011;31254;51.680;5.394;2023-06-19T09:14:40;19.48;;;11.35;;
45522;SDS011;31254;51.680;5.394;2023-06-19T09:17:12;16.05;;;11.02;;
45522;SDS011;31254;51.680;5.394;2023-06-19T09:19:51;11.27;;;9.32;;
45522;SDS011;31254;51.680;5.394;2023-06-19T09:22:25;12.93;;;10.52;;
45522;SDS011;31254;51.680;5.394;2023-06-19T09:24:52;14.02;;;10.27;;
45522;SDS011;31254;51.680;5.394;2023-06-19T09:27:19;15.32;;;9.80;;
45522;SDS011;31254;51.680;5.394;2023-06-19T09:29:47;15.15;;;10.77;;
45522;SDS011;31254;51.680;5.394;2023-06-19T09:32:26;16.92;;;10.35;;
45522;SDS011;31254;51.680;5.394;2023-06-19T09:34:55;15.82;;;10.15;;
45522;SDS011;31254;51.680;5.394;2023-06-19T09:37:30;12.60;;;9.18;;
45522;SDS011;31254;51.680;5.394;2023-06-19T09:39:58;16.83;;;8.70;;
45522;SDS011;31254;51.680;5.394;2023-06-19T09:42:27;11.75;;;7.95;;
45522;SDS011;31254;51.680;5.394;2023-06-19T09:45:03;12.05;;;8.77;;
45522;SDS011;31254;51.680;5.394;2023-06-19T09:49:59;12.25;;;9.30;;
45522;SDS011;31254;51.680;5.394;2023-06-19T09:52:29;10.82;;;9.00;;
45522;SDS011;31254;51.680;5.394;2023-06-19T09:55:02;10.02;;;8.50;;
45522;SDS011;31254;51.680;5.394;2023-06-19T09:57:34;11.77;;;8.27;;
45522;SDS011;31254;51.680;5.394;2023-06-19T10:00:05;12.05;;;8.57;;
45522;SDS011;31254;51.680;5.394;2023-06-19T10:02:42;13.32;;;8.73;;
45522;SDS011;31254;51.680;5.394;2023-06-19T10:05:11;13.07;;;8.10;;
45522;SDS011;31254;51.680;5.394;2023-06-19T10:07:42;14.18;;;9.00;;
45522;SDS011;31254;51.680;5.394;2023-06-19T10:10:31;12.32;;;7.90;;
45522;SDS011;31254;51.680;5.394;2023-06-19T10:13:11;11.10;;;9.23;;
45522;SDS011;31254;51.680;5.394;2023-06-19T10:15:43;11.15;;;8.73;;
45522;SDS011;31254;51.680;5.394;2023-06-19T10:18:15;10.18;;;7.88;;
45522;SDS011;31254;51.680;5.394;2023-06-19T10:20:42;12.35;;;7.82;;
45522;SDS011;31254;51.680;5.394;2023-06-19T10:23:15;14.88;;;9.07;;
45522;SDS011;31254;51.680;5.394;2023-06-19T10:25:46;12.38;;;8.05;;
45522;SDS011;31254;51.680;5.394;2023-06-19T10:28:19;16.10;;;7.43;;
45522;SDS011;31254;51.680;5.394;2023-06-19T10:30:53;12.23;;;8.30;;
45522;SDS011;31254;51.680;5.394;2023-06-19T10:33:27;9.13;;;8.00;;
45522;SDS011;31254;51.680;5.394;2023-06-19T10:35:55;17.08;;;8.98;;
45522;SDS011;31254;51.680;5.394;2023-06-19T10:38:22;11.77;;;8.88;;
45522;SDS011;31254;51.680;5.394;2023-06-19T10:40:51;10.57;;;8.23;;
45522;SDS011;31254;51.680;5.394;2023-06-19T10:43:22;10.20;;;8.43;;
45522;SDS011;31254;51.680;5.394;2023-06-19T10:45:57;12.73;;;9.35;;
45522;SDS011;31254;51.680;5.394;2023-06-19T10:48:24;11.57;;;9.18;;
45522;SDS011;31254;51.680;5.394;2023-06-19T10:50:52;12.73;;;9.63;;
45522;SDS011;31254;51.680;5.394;2023-06-19T10:53:29;14.68;;;9.23;;
45522;SDS011;31254;51.680;5.394;2023-06-19T10:56:01;12.20;;;9.02;;
45522;SDS011;31254;51.680;5.394;2023-06-19T10:58:28;10.48;;;7.38;;
45522;SDS011;31254;51.680;5.394;2023-06-19T11:00:55;11.88;;;8.13;;
45522;SDS011;31254;51.680;5.394;2023-06-19T11:03:24;14.07;;;9.65;;
45522;SDS011;31254;51.680;5.394;2023-06-19T11:05:54;16.10;;;9.90;;
45522;SDS011;31254;51.680;5.394;2023-06-19T11:08:21;12.43;;;8.93;;
45522;SDS011;31254;51.680;5.394;2023-06-19T11:10:49;14.50;;;9.27;;
45522;SDS011;31254;51.680;5.394;2023-06-19T11:13:17;12.43;;;8.60;;
45522;SDS011;31254;51.680;5.394;2023-06-19T11:15:45;10.45;;;7.70;;
45522;SDS011;31254;51.680;5.394;2023-06-19T11:18:15;9.77;;;7.90;;
45522;SDS011;31254;51.680;5.394;2023-06-19T11:20:49;10.60;;;8.05;;
45522;SDS011;31254;51.680;5.394;2023-06-19T11:23:26;14.02;;;8.35;;
45522;SDS011;31254;51.680;5.394;2023-06-19T11:26:05;13.40;;;7.40;;
45522;SDS011;31254;51.680;5.394;2023-06-19T11:28:32;12.85;;;6.95;;
45522;SDS011;31254;51.680;5.394;2023-06-19T11:31:00;8.18;;;6.43;;
45522;SDS011;31254;51.680;5.394;2023-06-19T11:33:30;10.88;;;8.63;;
45522;SDS011;31254;51.680;5.394;2023-06-19T11:36:00;14.23;;;7.72;;
45522;SDS011;31254;51.680;5.394;2023-06-19T11:38:27;9.20;;;7.65;;
45522;SDS011;31254;51.680;5.394;2023-06-19T11:40:55;10.75;;;6.72;;
45522;SDS011;31254;51.680;5.394;2023-06-19T11:43:32;10.02;;;6.63;;
45522;SDS011;31254;51.680;5.394;2023-06-19T11:46:02;7.55;;;5.93;;
45522;SDS011;31254;51.680;5.394;2023-06-19T11:48:30;10.70;;;6.68;;
45522;SDS011;31254;51.680;5.394;2023-06-19T11:50:59;8.93;;;6.25;;
45522;SDS011;31254;51.680;5.394;2023-06-19T11:53:26;9.50;;;6.47;;
45522;SDS011;31254;51.680;5.394;2023-06-19T11:55:53;10.57;;;6.28;;
45522;SDS011;31254;51.680;5.394;2023-06-19T11:58:22;7.97;;;5.85;;
45522;SDS011;31254;51.680;5.394;2023-06-19T12:00:49;9.00;;;5.90;;
45522;SDS011;31254;51.680;5.394;2023-06-19T12:03:16;10.18;;;6.88;;
45522;SDS011;31254;51.680;5.394;2023-06-19T12:05:43;9.90;;;5.90;;
45522;SDS011;31254;51.680;5.394;2023-06-19T12:08:10;12.68;;;6.63;;
45522;SDS011;31254;51.680;5.394;2023-06-19T12:10:41;9.93;;;6.57;;
45522;SDS011;31254;51.680;5.394;2023-06-19T12:13:08;8.48;;;5.90;;
45522;SDS011;31254;51.680;5.394;2023-06-19T12:15:40;11.93;;;6.55;;
45522;SDS011;31254;51.680;5.394;2023-06-19T12:18:06;9.00;;;6.00;;
45522;SDS011;31254;51.680;5.394;2023-06-19T12:20:34;8.52;;;6.28;;
45522;SDS011;31254;51.680;5.394;2023-06-19T12:23:00;9.35;;;6.35;;
45522;SDS011;31254;51.680;5.394;2023-06-19T12:25:32;12.98;;;6.28;;
45522;SDS011;31254;51.680;5.394;2023-06-19T12:27:58;9.82;;;7.28;;
45522;SDS011;31254;51.680;5.394;2023-06-19T12:30:25;22.10;;;6.85;;
45522;SDS011;31254;51.680;5.394;2023-06-19T12:32:54;8.55;;;6.10;;
45522;SDS011;31254;51.680;5.394;2023-06-19T12:35:21;10.10;;;6.18;;
45522;SDS011;31254;51.680;5.394;2023-06-19T12:37:49;12.43;;;6.53;;
45522;SDS011;31254;51.680;5.394;2023-06-19T12:40:18;11.73;;;6.18;;
45522;SDS011;31254;51.680;5.394;2023-06-19T12:42:48;9.70;;;5.65;;
45522;SDS011;31254;51.680;5.394;2023-06-19T12:45:16;9.45;;;5.35;;
45522;SDS011;31254;51.680;5.394;2023-06-19T12:47:43;15.73;;;5.28;;
45522;SDS011;31254;51.680;5.394;2023-06-19T12:50:12;12.95;;;5.63;;
45522;SDS011;31254;51.680;5.394;2023-06-19T12:52:39;12.13;;;5.55;;
45522;SDS011;31254;51.680;5.394;2023-06-19T12:55:08;10.30;;;5.28;;
45522;SDS011;31254;51.680;5.394;2023-06-19T12:57:34;8.07;;;5.28;;
45522;SDS011;31254;51.680;5.394;2023-06-19T13:00:02;9.27;;;5.88;;
45522;SDS011;31254;51.680;5.394;2023-06-19T13:02:32;9.65;;;5.38;;
45522;SDS011;31254;51.680;5.394;2023-06-19T13:04:59;10.50;;;4.65;;
45522;SDS011;31254;51.680;5.394;2023-06-19T13:07:25;7.75;;;5.22;;
45522;SDS011;31254;51.680;5.394;2023-06-19T13:09:55;8.60;;;5.22;;
45522;SDS011;31254;51.680;5.394;2023-06-19T13:12:25;11.95;;;5.63;;
45522;SDS011;31254;51.680;5.394;2023-06-19T13:14:52;12.82;;;5.22;;
45522;SDS011;31254;51.680;5.394;2023-06-19T13:17:21;10.48;;;5.32;;
45522;SDS011;31254;51.680;5.394;2023-06-19T13:19:47;9.60;;;5.05;;
45522;SDS011;31254;51.680;5.394;2023-06-19T13:22:14;7.38;;;4.50;;
45522;SDS011;31254;51.680;5.394;2023-06-19T13:24:41;7.75;;;4.47;;
45522;SDS011;31254;51.680;5.394;2023-06-19T13:27:08;7.22;;;4.45;;
45522;SDS011;31254;51.680;5.394;2023-06-19T13:29:35;10.95;;;5.10;;
45522;SDS011;31254;51.680;5.394;2023-06-19T13:32:02;8.27;;;4.80;;
45522;SDS011;31254;51.680;5.394;2023-06-19T13:34:29;6.43;;;4.55;;
45522;SDS011;31254;51.680;5.394;2023-06-19T13:37:00;9.93;;;5.10;;
45522;SDS011;31254;51.680;5.394;2023-06-19T13:39:27;8.05;;;4.90;;
45522;SDS011;31254;51.680;5.394;2023-06-19T13:41:54;8.18;;;5.35;;
45522;SDS011;31254;51.680;5.394;2023-06-19T13:44:22;6.30;;;4.68;;
45522;SDS011;31254;51.680;5.394;2023-06-19T13:46:48;8.73;;;5.28;;
45522;SDS011;31254;51.680;5.394;2023-06-19T13:49:18;8.00;;;5.15;;
45522;SDS011;31254;51.680;5.394;2023-06-19T13:51:45;8.83;;;5.30;;
45522;SDS011;31254;51.680;5.394;2023-06-19T13:54:12;9.98;;;5.18;;
45522;SDS011;31254;51.680;5.394;2023-06-19T13:56:40;9.07;;;4.63;;
45522;SDS011;31254;51.680;5.394;2023-06-19T13:59:13;6.50;;;4.32;;
45522;SDS011;31254;51.680;5.394;2023-06-19T14:01:40;9.48;;;4.30;;
45522;SDS011;31254;51.680;5.394;2023-06-19T14:04:07;7.68;;;4.97;;
45522;SDS011;31254;51.680;5.394;2023-06-19T14:06:39;8.25;;;4.40;;
45522;SDS011;31254;51.680;5.394;2023-06-19T14:09:13;9.70;;;4.47;;
45522;SDS011;31254;51.680;5.394;2023-06-19T14:11:41;9.30;;;4.63;;
45522;SDS011;31254;51.680;5.394;2023-06-19T14:14:07;7.85;;;4.50;;
45522;SDS011;31254;51.680;5.394;2023-06-19T14:16:37;6.25;;;4.85;;
45522;SDS011;31254;51.680;5.394;2023-06-19T14:19:04;6.07;;;4.70;;
45522;SDS011;31254;51.680;5.394;2023-06-19T14:21:31;8.80;;;4.85;;
45522;SDS011;31254;51.680;5.394;2023-06-19T14:24:00;9.07;;;5.00;;
45522;SDS011;31254;51.680;5.394;2023-06-19T14:26:27;8.73;;;4.63;;
45522;SDS011;31254;51.680;5.394;2023-06-19T14:28:54;8.95;;;4.70;;
45522;SDS011;31254;51.680;5.394;2023-06-19T14:31:23;7.32;;;4.28;;
45522;SDS011;31254;51.680;5.394;2023-06-19T14:33:50;16.27;;;4.45;;
45522;SDS011;31254;51.680;5.394;2023-06-19T14:36:20;8.50;;;4.43;;
45522;SDS011;31254;51.680;5.394;2023-06-19T14:38:46;7.53;;;4.35;;
45522;SDS011;31254;51.680;5.394;2023-06-19T14:41:15;7.95;;;4.43;;
45522;SDS011;31254;51.680;5.394;2023-06-19T14:43:42;8.02;;;4.00;;
45522;SDS011;31254;51.680;5.394;2023-06-19T14:46:09;9.10;;;4.82;;
45522;SDS011;31254;51.680;5.394;2023-06-19T14:48:36;8.07;;;5.05;;
45522;SDS011;31254;51.680;5.394;2023-06-19T14:51:05;9.35;;;4.65;;
45522;SDS011;31254;51.680;5.394;2023-06-19T14:53:31;7.15;;;4.10;;
45522;SDS011;31254;51.680;5.394;2023-06-19T14:55:58;8.25;;;4.53;;
45522;SDS011;31254;51.680;5.394;2023-06-19T14:58:28;8.18;;;4.32;;